Time;durP1;ratioP1;P1;durP2;ratioP2;P2;SDS_P1;SDS_P2;PMS_P1;PMS_P2;Temp;Humidity;BMP_temperature;BMP_pressure;BME280_temperature;BME280_humidity;BME280_pressure;Samples;Min_cycle;Max_cycle;Signal;HPM_P1;HPM_P2
2023/06/26 00:00:32;;;;;;;16.38;13.70;;;;;;;;;;5048777;28;20029;-64
2023/06/26 00:02:58;;;;;;;14.63;12.35;;;;;;;;;;5048504;28;20045;-64
2023/06/26 00:05:24;;;;;;;14.48;12.95;;;;;;;;;;5048546;28;20095;-65
2023/06/26 00:07:50;;;;;;;13.40;10.55;;;;;;;;;;5048353;28;20082;-65
2023/06/26 00:10:16;;;;;;;16.45;10.93;;;;;;;;;;5048644;28;20121;-65
2023/06/26 00:12:42;;;;;;;12.77;11.10;;;;;;;;;;5048638;28;20040;-69
2023/06/26 00:15:09;;;;;;;17.52;11.48;;;;;;;;;;5048443;28;20056;-68
2023/06/26 00:17:37;;;;;;;16.02;12.32;;;;;;;;;;5038170;28;20028;-65
2023/06/26 00:20:05;;;;;;;13.55;10.57;;;;;;;;;;5046444;28;20494;-69
2023/06/26 00:22:31;;;;;;;11.48;10.30;;;;;;;;;;5047925;28;20029;-64
2023/06/26 00:24:57;;;;;;;13.50;12.02;;;;;;;;;;5048364;28;20551;-65
2023/06/26 00:27:23;;;;;;;12.50;11.18;;;;;;;;;;5048291;28;20048;-65
2023/06/26 00:29:50;;;;;;;13.95;10.85;;;;;;;;;;5052521;28;20025;-65
2023/06/26 00:32:16;;;;;;;13.25;11.10;;;;;;;;;;5045619;28;20045;-66
2023/06/26 00:34:42;;;;;;;12.93;10.52;;;;;;;;;;5045577;28;20021;-64
2023/06/26 00:37:08;;;;;;;15.43;11.48;;;;;;;;;;5051942;28;20041;-64
2023/06/26 00:39:34;;;;;;;16.48;10.88;;;;;;;;;;5051834;28;20060;-65
2023/06/26 00:42:00;;;;;;;14.27;11.45;;;;;;;;;;5052319;28;20021;-70
2023/06/26 00:44:26;;;;;;;12.65;10.80;;;;;;;;;;5047707;28;20475;-67
2023/06/26 00:46:52;;;;;;;14.05;10.55;;;;;;;;;;5042917;28;20471;-70
2023/06/26 00:49:18;;;;;;;13.18;10.50;;;;;;;;;;5051950;28;20444;-70
2023/06/26 00:51:45;;;;;;;12.38;10.25;;;;;;;;;;5052522;28;20049;-70
2023/06/26 00:54:11;;;;;;;13.23;9.98;;;;;;;;;;5051543;28;20033;-70
2023/06/26 00:56:37;;;;;;;13.10;9.88;;;;;;;;;;5051860;28;20022;-67
2023/06/26 00:59:03;;;;;;;10.88;9.50;;;;;;;;;;5052010;28;20067;-70
2023/06/26 01:01:29;;;;;;;14.18;10.45;;;;;;;;;;5051975;28;20100;-70
2023/06/26 01:03:56;;;;;;;12.48;10.30;;;;;;;;;;5050469;28;20068;-70
2023/06/26 01:06:24;;;;;;;12.45;11.13;;;;;;;;;;5052385;28;20375;-66
2023/06/26 01:08:50;;;;;;;13.63;10.90;;;;;;;;;;5051287;28;20033;-68
2023/06/26 01:11:17;;;;;;;12.40;10.50;;;;;;;;;;5052083;28;20025;-70
2023/06/26 01:13:46;;;;;;;12.55;10.35;;;;;;;;;;5051880;28;20025;-70
2023/06/26 01:16:12;;;;;;;17.38;9.88;;;;;;;;;;5039261;28;20018;-69
2023/06/26 01:18:41;;;;;;;10.75;9.57;;;;;;;;;;5050559;28;20044;-69
2023/06/26 01:21:08;;;;;;;13.75;10.55;;;;;;;;;;5052016;28;20025;-68
2023/06/26 01:23:47;;;;;;;16.90;10.98;;;;;;;;;;5051116;28;20025;-69
2023/06/26 01:26:13;;;;;;;12.40;10.73;;;;;;;;;;5051665;28;20033;-70
2023/06/26 01:28:40;;;;;;;14.88;11.45;;;;;;;;;;5051103;28;20013;-70
2023/06/26 01:31:07;;;;;;;12.63;10.07;;;;;;;;;;5051540;28;20390;-70
2023/06/26 01:33:33;;;;;;;12.55;10.45;;;538.00;2406.40;;;;;;5051389;28;20025;-69
2023/06/26 01:35:59;;;;;;;17.90;9.85;;;538.10;2406.40;;;;;;5050974;28;20463;-68
2023/06/26 01:38:25;;;;;;;14.73;10.00;;;538.10;2406.40;;;;;;5050421;28;20049;-69
2023/06/26 01:40:52;;;;;;;11.18;9.73;;;538.10;2406.40;;;;;;5051266;28;20029;-71
2023/06/26 01:43:35;;;;;;;13.98;10.75;;;538.00;2406.40;;;;;;5051068;28;20554;-71
2023/06/26 01:46:24;;;;;;;10.57;9.13;;;538.10;2406.40;;;;;;5050874;28;20540;-71
2023/06/26 01:49:00;;;;;;;15.45;10.73;;;538.00;2406.40;;;;;;5050669;28;20025;-71
2023/06/26 01:51:31;;;;;;;10.73;9.57;;;538.00;2406.40;;;;;;5051484;28;20040;-70
2023/06/26 01:53:58;;;;;;;13.40;9.80;;;537.90;2406.40;;;;;;5050769;28;20425;-68
2023/06/26 01:56:25;;;;;;;12.18;9.65;;;537.90;2406.40;;;;;;5050941;28;20052;-70
2023/06/26 01:58:54;;;;;;;13.45;9.98;;;537.80;2406.40;;;;;;5050749;28;20059;-70
2023/06/26 02:01:21;;;;;;;13.23;10.75;;;537.90;2406.40;;;;;;5050810;28;20068;-70
2023/06/26 02:03:48;;;;;;;10.65;9.52;;;537.80;2406.40;;;;;;5050286;28;20044;-71
2023/06/26 02:06:14;;;;;;;15.30;11.05;;;537.80;2406.40;;;;;;5051233;28;20477;-70
2023/06/26 02:08:40;;;;;;;12.05;10.85;;;537.70;2406.40;;;;;;5050252;28;20048;-69
2023/06/26 02:11:06;;;;;;;13.98;11.45;;;537.60;2406.40;;;;;;5050783;28;20029;-70
2023/06/26 02:13:31;;;;;;;12.57;11.18;;;537.70;2406.40;;;;;;5050139;28;20028;-71
2023/06/26 02:15:58;;;;;;;12.38;11.05;;;537.60;2406.40;;;;;;5050053;28;20029;-70
2023/06/26 02:18:24;;;;;;;12.00;10.30;;;512.90;2380.80;;;;;;5050553;28;20028;-71
2023/06/26 02:20:50;;;;;;;13.18;9.98;;;512.90;2380.80;;;;;;5050565;28;20032;-68
2023/06/26 02:23:15;;;;;;;12.63;10.38;;;512.90;2380.80;;;;;;5050370;28;20036;-71
2023/06/26 02:25:41;;;;;;;12.65;10.63;;;512.90;2380.80;;;;;;5050528;28;20028;-70
2023/06/26 02:28:07;;;;;;;17.60;11.50;;;512.90;2380.80;;;;;;5050127;28;20108;-67
2023/06/26 02:30:32;;;;;;;12.65;10.55;;;512.90;2380.80;;;;;;5050330;28;20530;-73
2023/06/26 02:32:58;;;;;;;13.95;10.85;;;512.90;2380.80;;;;;;5049591;28;20047;-69
2023/06/26 02:35:24;;;;;;;13.80;10.43;;;512.80;2380.80;;;;;;5050150;28;20029;-69
2023/06/26 02:37:50;;;;;;;14.73;11.60;;;512.70;2380.80;;;;;;5049573;28;20052;-67
2023/06/26 02:40:16;;;;;;;13.35;10.88;;;512.80;2380.80;;;;;;5050469;28;20102;-70
2023/06/26 02:42:41;;;;;;;15.60;11.52;;;512.70;2380.80;;;;;;5049746;28;20455;-69
2023/06/26 02:45:08;;;;;;;14.30;11.45;;;512.70;2380.80;;;;;;5049945;28;20063;-64
2023/06/26 02:47:33;;;;;;;13.88;12.38;;;512.70;2380.80;;;;;;5049736;28;20017;-69
2023/06/26 02:50:01;;;;;;;12.63;10.55;;;512.60;2380.80;;;;;;5049825;28;20057;-69
2023/06/26 02:52:28;;;;;;;12.45;11.15;;;512.60;2380.80;;;;;;5049373;28;20390;-69
2023/06/26 02:54:54;;;;;;;13.13;10.77;;;512.70;2380.80;;;;;;5049910;28;20590;-70
2023/06/26 02:57:19;;;;;;;12.75;10.73;;;512.70;2380.80;;;;;;5045898;28;20101;-65
2023/06/26 02:59:45;;;;;;;14.10;10.13;;;512.60;2380.80;;;;;;5040877;28;20425;-70
2023/06/26 03:02:11;;;;;;;13.07;11.43;;;512.70;2380.80;;;;;;5048079;28;20028;-69
2023/06/26 03:04:37;;;;;;;14.30;11.05;;;512.70;2380.80;;;;;;5049745;28;20041;-69
2023/06/26 03:07:03;;;;;;;13.90;11.07;;;512.70;2380.80;;;;;;5045053;28;20026;-70
2023/06/26 03:09:29;;;;;;;13.30;10.88;;;512.70;2380.80;;;;;;5040465;28;20031;-69
2023/06/26 03:11:55;;;;;;;16.13;11.32;;;512.70;2380.80;;;;;;5049669;28;20017;-70
2023/06/26 03:14:21;;;;;;;14.90;10.93;;;512.70;2380.80;;;;;;5049500;28;20025;-69
2023/06/26 03:16:47;;;;;;;12.38;10.95;;;512.90;2380.80;;;;;;5049278;28;20017;-68
2023/06/26 03:19:13;;;;;;;12.15;10.80;;;512.90;2380.80;;;;;;5049693;28;20352;-71
2023/06/26 03:21:39;;;;;;;12.40;11.10;;;512.90;2380.80;;;;;;5048984;28;20021;-71
2023/06/26 03:24:05;;;;;;;14.63;11.45;;;512.90;2380.80;;;;;;5049165;28;20033;-72
2023/06/26 03:26:31;;;;;;;13.32;11.93;;;537.60;2406.40;;;;;;5049184;28;20456;-66
2023/06/26 03:28:56;;;;;;;13.60;11.15;;;537.90;2406.40;;;;;;5049294;28;20064;-66
2023/06/26 03:31:22;;;;;;;14.20;10.60;;;537.90;2406.40;;;;;;5048908;28;20017;-72
2023/06/26 03:33:48;;;;;;;13.00;11.57;;;538.00;2406.40;;;;;;5049450;28;20033;-66
2023/06/26 03:36:13;;;;;;;13.77;11.75;;;538.00;2406.40;;;;;;5049027;28;20040;-68
2023/06/26 03:38:39;;;;;;;15.65;11.70;;;538.20;2406.40;;;;;;5048762;28;20049;-66
2023/06/26 03:41:05;;;;;;;13.25;11.13;;;538.30;2406.40;;;;;;5049161;28;20032;-72
2023/06/26 03:43:30;;;;;;;13.90;10.60;;;538.40;2406.40;;;;;;5048827;28;20379;-72
2023/06/26 03:45:56;;;;;;;14.48;11.57;;;538.50;2406.40;;;;;;5049028;28;20040;-72
2023/06/26 03:48:22;;;;;;;12.30;10.48;;;563.20;2432.00;;;;;;5048921;28;20056;-71
2023/06/26 03:50:48;;;;;;;13.73;11.98;;;563.20;2432.00;;;;;;5049082;28;20021;-69
2023/06/26 03:53:13;;;;;;;13.02;10.13;;;563.30;2432.00;;;;;;5049224;28;20032;-71
2023/06/26 03:55:39;;;;;;;13.68;11.40;;;563.30;2432.00;;;;;;5048998;28;20112;-66
2023/06/26 03:58:05;;;;;;;13.98;11.10;;;563.20;2432.00;;;;;;5049039;28;20375;-67
2023/06/26 04:00:31;;;;;;;16.35;11.20;;;563.20;2432.00;;;;;;5048826;28;20016;-67
2023/06/26 04:02:57;;;;;;;12.80;11.40;;;563.20;2432.00;;;;;;5051473;28;20079;-65
2023/06/26 04:05:23;;;;;;;14.75;11.35;;;563.20;2432.00;;;;;;5052928;28;20064;-68
2023/06/26 04:07:52;;;;;;;13.10;11.07;;;563.20;2432.00;;;;;;5041040;28;20068;-66
2023/06/26 04:10:18;;;;;;;12.48;11.05;;;563.20;2432.00;;;;;;5052758;28;20475;-65
2023/06/26 04:12:44;;;;;;;12.43;10.55;;;563.20;2432.00;;;;;;5053165;28;20063;-65
2023/06/26 04:15:10;;;;;;;14.48;11.85;;;563.20;2432.00;;;;;;5052540;28;20044;-71
2023/06/26 04:17:36;;;;;;;16.05;12.02;;;563.30;2432.00;;;;;;5052698;28;20031;-70
2023/06/26 04:20:06;;;;;;;13.55;11.50;;;563.30;2432.00;;;;;;5052402;28;20029;-65
2023/06/26 04:22:32;;;;;;;14.88;11.60;;;563.30;2432.00;;;;;;5052014;28;20087;-68
2023/06/26 04:24:58;;;;;;;12.52;11.15;;;563.30;2432.00;;;;;;5052805;28;20033;-66
2023/06/26 04:27:23;;;;;;;20.73;12.70;;;563.50;2432.00;;;;;;5052166;28;20017;-67
2023/06/26 04:29:49;;;;;;;12.70;11.13;;;563.60;2432.00;;;;;;5052736;28;20033;-66
2023/06/26 04:32:15;;;;;;;12.93;11.55;;;563.60;2432.00;;;;;;5052463;28;20033;-68
2023/06/26 04:34:43;;;;;;;13.88;11.55;;;615.20;2432.00;;;;;;5052575;28;20036;-66
2023/06/26 04:37:09;;;;;;;12.48;11.18;;;717.10;2432.00;;;;;;5038858;28;20061;-74
2023/06/26 04:39:36;;;;;;;11.70;10.48;;;768.90;2150.40;;;;;;5052441;28;20463;-66
2023/06/26 04:42:03;;;;;;;11.63;10.25;;;794.40;1996.80;;;;;;5052780;28;20372;-66
2023/06/26 04:44:29;;;;;;;12.48;11.25;;;845.30;1894.40;;;;;;5052216;28;20122;-66
2023/06/26 04:46:54;;;;;;;12.07;10.98;;;870.60;1817.60;;;;;;5048693;28;20079;-71
2023/06/26 04:49:20;;;;;;;12.70;11.13;;;871.30;1766.40;;;;;;5051904;28;20032;-66
2023/06/26 04:51:46;;;;;;;11.82;10.70;;;896.50;1689.60;;;;;;5051194;28;20116;-67
2023/06/26 04:54:11;;;;;;;12.57;11.23;;;921.60;1689.60;;;;;;5051722;28;20020;-68
2023/06/26 04:56:39;;;;;;;12.13;10.98;;;921.90;1612.80;;;;;;5051932;28;20488;-67
2023/06/26 04:59:05;;;;;;;12.52;11.32;;;921.70;1638.40;;;;;;5050134;28;20010;-65
2023/06/26 05:01:32;;;;;;;12.73;11.45;;;922.30;1612.80;;;;;;5043554;28;20051;-65
2023/06/26 05:04:02;;;;;;;11.90;10.48;;;922.30;1587.20;;;;;;5051357;28;20044;-65
2023/06/26 05:06:27;;;;;;;13.38;11.75;;;947.60;1536.00;;;;;;5051420;28;20100;-67
2023/06/26 05:08:53;;;;;;;12.02;10.85;;;947.40;1561.60;;;;;;5051793;28;20116;-70
2023/06/26 05:11:19;;;;;;;12.45;11.15;;;948.10;1510.40;;;;;;5051780;28;20299;-73
2023/06/26 05:13:44;;;;;;;11.90;10.80;;;973.40;1484.80;;;;;;5042050;28;20079;-71
2023/06/26 05:16:10;;;;;;;12.75;11.63;;;998.40;1484.80;;;;;;5031379;28;20444;-70
2023/06/26 05:18:36;;;;;;;11.82;10.82;;;999.00;1433.60;;;;;;5051396;28;20048;-72
2023/06/26 05:21:03;;;;;;;12.55;11.55;;;1024.40;1382.40;;;;;;5051583;28;20032;-71
2023/06/26 05:23:33;;;;;;;12.32;11.25;;;1024.70;1356.80;;;;;;5051184;28;20029;-71
2023/06/26 05:26:03;;;;;;;13.27;11.95;;;1050.00;1356.80;;;;;;5051486;28;20021;-66
2023/06/26 05:28:30;;;;;;;13.35;12.25;;;1050.40;1331.20;;;;;;5051347;28;20027;-66
2023/06/26 05:30:57;;;;;;;11.88;10.85;;;1076.10;1254.40;;;;;;5049566;28;20033;-67
2023/06/26 05:33:24;;;;;;;13.63;12.45;;;1101.10;1254.40;;;;;;5039986;28;20029;-70
2023/06/26 05:35:52;;;;;;;13.95;12.75;;;1101.20;1254.40;;;;;;5050894;28;20037;-68
2023/06/26 05:38:18;;;;;;;13.05;11.82;;;1101.70;1228.80;;;;;;5040746;28;20068;-67
2023/06/26 05:40:44;;;;;;;13.35;12.18;;;1101.70;1228.80;;;;;;5050602;28;20036;-65
2023/06/26 05:43:10;;;;;;;13.18;12.07;;;1126.50;1228.80;;;;;;5050814;28;20194;-75
2023/06/26 05:45:36;;;;;;;13.98;12.88;;;1126.90;1203.20;;;;;;5051111;28;20443;-72
2023/06/26 05:48:01;;;;;;;13.18;12.00;;;1127.10;1177.60;;;;;;5049200;28;20094;-67
2023/06/26 05:50:28;;;;;;;14.20;12.75;;;1126.70;1203.20;;;;;;5050571;28;20471;-68
2023/06/26 05:52:54;;;;;;;13.05;12.05;;;1127.00;1203.20;;;;;;5050113;28;20017;-67
2023/06/26 05:55:20;;;;;;;14.25;12.90;;;1126.80;1203.20;;;;;;5050977;28;20025;-67
2023/06/26 05:57:46;;;;;;;13.38;12.18;;;1152.40;1177.60;;;;;;5050726;28;20383;-68
2023/06/26 06:00:13;;;;;;;13.00;12.10;;;1152.50;1152.00;;;;;;5050727;28;20029;-74
2023/06/26 06:02:39;;;;;;;13.63;12.52;;;1152.70;1152.00;;;;;;5050703;28;20009;-66
2023/06/26 06:05:06;;;;;;;13.45;12.35;;;1152.50;1152.00;;;;;;5050580;28;20052;-69
2023/06/26 06:07:33;;;;;;;13.90;12.82;;;1152.70;1126.40;;;;;;5050430;28;20457;-74
2023/06/26 06:09:59;;;;;;;14.25;13.23;;;1126.60;1203.20;;;;;;5050960;28;20037;-68
2023/06/26 06:12:25;;;;;;;13.95;12.90;;;1152.40;1152.00;;;;;;5050473;28;20051;-72
2023/06/26 06:14:52;;;;;;;14.98;13.82;;;1152.40;1152.00;;;;;;5050667;28;20555;-67
2023/06/26 06:17:18;;;;;;;13.38;12.38;;;1178.30;1100.80;;;;;;5036920;28;20392;-71
2023/06/26 06:19:44;;;;;;;15.43;14.18;;;1177.60;1126.40;;;;;;5050762;28;20055;-67
2023/06/26 06:22:10;;;;;;;14.77;13.65;;;1177.80;1126.40;;;;;;5049675;28;20051;-72
2023/06/26 06:24:36;;;;;;;14.70;13.50;;;1178.50;1100.80;;;;;;5050219;28;20483;-67
2023/06/26 06:27:02;;;;;;;14.55;13.32;;;1203.20;1100.80;;;;;;5050218;28;20024;-72
2023/06/26 06:29:27;;;;;;;13.90;12.75;;;1152.90;1126.40;;;;;;5050282;28;20053;-68
2023/06/26 06:31:53;;;;;;;14.20;13.00;;;1152.60;1152.00;;;;;;5050223;28;20025;-68
2023/06/26 06:34:19;;;;;;;13.07;12.07;;;1152.70;1126.40;;;;;;5050183;28;20028;-72
2023/06/26 06:36:45;;;;;;;16.05;14.95;;;1178.20;1100.80;;;;;;5050404;28;20384;-66
2023/06/26 06:39:10;;;;;;;14.85;13.77;;;1178.20;1100.80;;;;;;5049936;28;20090;-72
2023/06/26 06:41:36;;;;;;;14.73;13.63;;;1177.70;1100.80;;;;;;5049865;28;20100;-72
2023/06/26 06:44:02;;;;;;;13.45;12.55;;;1178.30;1100.80;;;;;;5049854;28;20036;-67
2023/06/26 06:46:28;;;;;;;14.05;13.05;;;1203.40;1100.80;;;;;;5036790;28;20026;-67
2023/06/26 06:48:53;;;;;;;14.23;13.13;;;1228.90;1075.20;;;;;;5049853;28;20379;-72
2023/06/26 06:51:19;;;;;;;15.10;14.00;;;1203.80;1075.20;;;;;;5049854;28;20036;-71
2023/06/26 06:53:45;;;;;;;14.20;13.10;;;1203.90;1075.20;;;;;;5050352;28;20079;-68
2023/06/26 06:56:10;;;;;;;14.65;13.60;;;1228.90;1075.20;;;;;;5049443;28;20087;-74
2023/06/26 06:58:36;;;;;;;15.18;14.13;;;1229.20;1049.60;;;;;;5049796;28;20029;-68
2023/06/26 07:01:02;;;;;;;13.45;12.55;;;1228.80;1075.20;;;;;;5049650;28;20468;-74
2023/06/26 07:03:28;;;;;;;14.63;13.63;;;1229.40;1049.60;;;;;;5048935;28;20044;-73
2023/06/26 07:05:56;;;;;;;15.25;13.90;;;1228.80;1075.20;;;;;;5049559;28;20087;-69
2023/06/26 07:08:21;;;;;;;13.98;12.27;;;1254.40;1049.60;;;;;;5048800;28;20029;-73
2023/06/26 07:10:47;;;;;;;14.00;13.10;;;1229.40;1049.60;;;;;;5049516;28;20421;-69
2023/06/26 07:13:13;;;;;;;13.32;12.35;;;1229.50;1049.60;;;;;;5049520;28;20501;-72
2023/06/26 07:15:38;;;;;;;14.85;13.82;;;1254.80;1049.60;;;;;;5049351;28;20028;-73
2023/06/26 07:18:04;;;;;;;14.15;13.15;;;1254.80;1049.60;;;;;;5036255;28;20087;-69
2023/06/26 07:20:30;;;;;;;14.85;13.95;;;1255.00;1024.00;;;;;;5041421;28;20049;-73
2023/06/26 07:22:56;;;;;;;16.92;14.45;;;1280.20;998.40;;;;;;5044080;28;20463;-68
2023/06/26 07:25:21;;;;;;;14.57;13.57;;;1280.40;998.40;;;;;;5049415;28;20032;-68
2023/06/26 07:27:47;;;;;;;11.57;10.57;;;1305.90;947.20;;;;;;5049548;28;20546;-69
2023/06/26 07:30:13;;;;;;;14.80;13.75;;;1280.20;998.40;;;;;;5049426;28;20112;-73
2023/06/26 07:32:40;;;;;;;14.40;13.40;;;1255.30;998.40;;;;;;5048601;28;20029;-67
2023/06/26 07:35:06;;;;;;;15.32;14.43;;;1255.30;998.40;;;;;;5049075;28;20029;-67
2023/06/26 07:37:32;;;;;;;15.35;14.20;;;1280.70;972.80;;;;;;5048119;28;20079;-72
2023/06/26 07:39:57;;;;;;;14.98;13.98;;;1306.00;947.20;;;;;;5049520;28;20386;-69
2023/06/26 07:42:23;;;;;;;15.40;14.30;;;1306.50;870.40;;;;;;5036137;28;20030;-73
2023/06/26 07:44:49;;;;;;;14.73;13.73;;;1306.50;921.60;;;;;;5049205;28;20438;-67
2023/06/26 07:47:15;;;;;;;13.65;12.40;;;1228.90;1049.60;;;;;;5049231;28;20025;-69
2023/06/26 07:49:41;;;;;;;13.00;12.10;;;1254.60;998.40;;;;;;5048882;28;20047;-71
2023/06/26 07:52:10;;;;;;;13.63;12.48;;;1203.90;1024.00;;;;;;5048536;28;20467;-69
2023/06/26 07:54:35;;;;;;;11.93;10.88;;;1229.50;998.40;;;;;;5040649;28;20159;-72
2023/06/26 07:57:04;;;;;;;10.27;9.48;;;1203.90;998.40;;;;;;5044203;28;20024;-68
2023/06/26 07:59:30;;;;;;;9.43;8.73;;;1178.50;998.40;;;;;;5048949;28;20040;-71
2023/06/26 08:01:57;;;;;;;13.55;12.45;;;1100.80;1100.80;;;;;;5048711;28;20017;-66
2023/06/26 08:04:28;;;;;;;12.50;11.50;;;1126.60;1075.20;;;;;;5048739;28;20032;-71
2023/06/26 08:06:56;;;;;;;10.05;9.15;;;1177.60;998.40;;;;;;5048605;28;20040;-70
2023/06/26 08:09:24;;;;;;;9.45;8.68;;;1152.60;1024.00;;;;;;5049040;28;20033;-71
2023/06/26 08:11:50;;;;;;;8.98;8.25;;;1075.90;1075.20;;;;;;5048940;28;20017;-68
2023/06/26 08:14:16;;;;;;;9.80;9.00;;;999.00;1203.20;;;;;;5039016;28;20033;-71
2023/06/26 08:16:46;;;;;;;9.63;8.82;;;973.20;1254.40;;;;;;5032213;28;20028;-71
2023/06/26 08:19:13;;;;;;;9.93;8.90;;;947.20;1305.60;;;;;;5048515;28;20095;-72
2023/06/26 08:21:39;;;;;;;10.43;9.48;;;922.10;1356.80;;;;;;5045108;28;20070;-69
2023/06/26 08:24:05;;;;;;;10.55;9.55;;;921.70;1382.40;;;;;;5047206;28;20475;-69
2023/06/26 08:26:30;;;;;;;10.93;8.68;;;896.70;1356.80;;;;;;5033726;28;20030;-71
2023/06/26 08:28:56;;;;;;;10.13;9.18;;;896.30;1356.80;;;;;;5048933;28;20025;-67
2023/06/26 08:31:22;;;;;;;8.77;7.97;;;896.10;1382.40;;;;;;5048629;28;20071;-67
2023/06/26 08:33:48;;;;;;;9.63;8.82;;;871.20;1382.40;;;;;;5048013;28;20068;-68
2023/06/26 08:36:13;;;;;;;9.23;8.32;;;871.30;1382.40;;;;;;5048638;28;20032;-71
2023/06/26 08:38:42;;;;;;;10.25;9.25;;;871.10;1356.80;;;;;;5047405;28;20115;-70
2023/06/26 08:41:08;;;;;;;9.68;8.70;;;896.10;1382.40;;;;;;5048435;28;20029;-69
2023/06/26 08:43:35;;;;;;;9.68;8.70;;;896.20;1356.80;;;;;;5048390;28;20033;-67
2023/06/26 08:46:01;;;;;;;8.32;7.55;;;896.00;1356.80;;;;;;5047896;28;20064;-70
2023/06/26 08:48:31;;;;;;;9.38;8.40;;;871.30;1356.80;;;;;;5048788;28;20017;-72
2023/06/26 08:51:00;;;;;;;9.45;8.55;;;871.10;1356.80;;;;;;5052394;28;20086;-67
2023/06/26 08:53:34;;;;;;;10.15;8.52;;;896.10;1382.40;;;;;;5051715;28;20017;-71
2023/06/26 08:56:00;;;;;;;9.68;8.60;;;870.60;1408.00;;;;;;5051994;28;20037;-71
2023/06/26 08:58:26;;;;;;;9.02;8.23;;;870.50;1433.60;;;;;;5051870;28;20028;-69
2023/06/26 09:00:53;;;;;;;8.00;6.82;;;870.50;1459.20;;;;;;5051928;28;20025;-70
2023/06/26 09:03:19;;;;;;;11.52;8.18;;;845.60;1408.00;;;;;;5050544;28;20092;-65
2023/06/26 09:05:45;;;;;;;8.75;7.85;;;845.20;1408.00;;;;;;5051788;28;20389;-70
2023/06/26 09:08:10;;;;;;;18.33;11.75;;;845.00;1433.60;;;;;;5051278;28;20033;-70
2023/06/26 09:10:36;;;;;;;8.77;7.93;;;845.20;1484.80;;;;;;5052142;28;20021;-66
2023/06/26 09:13:02;;;;;;;8.73;7.47;;;845.10;1433.60;;;;;;5052054;28;20025;-71
2023/06/26 09:15:38;;;;;;;7.45;6.75;;;844.80;1408.00;;;;;;5051486;28;20364;-66
2023/06/26 09:18:05;;;;;;;9.95;7.60;;;820.00;1331.20;;;;;;5051467;28;20028;-67
2023/06/26 09:20:33;;;;;;;8.43;7.53;;;845.20;1356.80;;;;;;5051768;28;20048;-70
2023/06/26 09:22:59;;;;;;;9.18;7.28;;;845.70;1433.60;;;;;;5051165;28;20023;-66
2023/06/26 09:25:26;;;;;;;8.82;7.43;;;845.70;1382.40;;;;;;5051759;28;20471;-67
2023/06/26 09:27:52;;;;;;;9.02;7.82;;;845.60;1433.60;;;;;;5051627;28;20030;-70
2023/06/26 09:30:19;;;;;;;8.32;7.07;;;845.60;1408.00;;;;;;5052030;28;20040;-72
2023/06/26 09:32:45;;;;;;;7.30;6.60;;;845.20;1382.40;;;;;;5051242;28;20029;-71
2023/06/26 09:35:11;;;;;;;7.93;7.20;;;845.20;1382.40;;;;;;5051282;28;20029;-71
2023/06/26 09:37:37;;;;;;;8.65;7.65;;;845.20;1382.40;;;;;;5050900;28;20143;-71
2023/06/26 09:40:08;;;;;;;8.85;7.95;;;845.20;1433.60;;;;;;5042161;28;20036;-71
2023/06/26 09:42:33;;;;;;;8.27;7.00;;;844.90;1459.20;;;;;;5048093;28;20028;-72
2023/06/26 09:44:59;;;;;;;9.93;7.03;;;820.10;1408.00;;;;;;5051295;28;20021;-66
2023/06/26 09:47:25;;;;;;;8.90;7.68;;;819.70;1433.60;;;;;;5051176;28;20051;-66
2023/06/26 09:49:52;;;;;;;8.25;7.45;;;819.70;1408.00;;;;;;5051432;28;20467;-70
2023/06/26 09:52:19;;;;;;;8.13;7.32;;;819.40;1433.60;;;;;;5051023;28;20020;-67
2023/06/26 09:54:46;;;;;;;8.15;6.93;;;819.30;1433.60;;;;;;5051409;28;20061;-66
2023/06/26 09:57:13;;;;;;;8.35;7.30;;;794.30;1484.80;;;;;;5050376;28;20082;-66
2023/06/26 09:59:44;;;;;;;9.32;7.20;;;819.40;1459.20;;;;;;5050347;28;20032;-66
2023/06/26 10:02:11;;;;;;;7.68;6.90;;;819.20;1459.20;;;;;;5050553;28;20471;-66
2023/06/26 10:04:37;;;;;;;7.68;6.93;;;794.40;1459.20;;;;;;5050907;28;20049;-65
2023/06/26 10:07:06;;;;;;;8.40;6.85;;;794.40;1459.20;;;;;;5036712;28;20029;-66
2023/06/26 10:09:33;;;;;;;8.38;7.10;;;794.40;1459.20;;;;;;5050546;28;20028;-66
2023/06/26 10:12:09;;;;;;;7.95;7.25;;;794.50;1484.80;;;;;;5050541;28;20375;-70
2023/06/26 10:14:39;;;;;;;8.32;7.07;;;794.20;1459.20;;;;;;5050654;28;20368;-72
2023/06/26 10:17:09;;;;;;;7.90;6.68;;;794.50;1484.80;;;;;;5024225;28;20562;-66
2023/06/26 10:19:38;;;;;;;7.72;6.88;;;794.30;1459.20;;;;;;5050250;28;20463;-72
2023/06/26 10:22:04;;;;;;;9.00;8.10;;;;;;;;;;5050628;28;20036;-67
2023/06/26 10:24:33;;;;;;;7.85;6.65;;;794.10;1510.40;;;;;;5050093;28;20044;-67
2023/06/26 10:27:05;;;;;;;8.38;7.30;;;794.00;1510.40;;;;;;5050328;28;20536;-67
2023/06/26 10:29:32;;;;;;;9.98;7.25;;;;;;;;;;5050110;28;20035;-70
2023/06/26 10:32:00;;;;;;;7.10;6.40;;;794.40;1484.80;;;;;;5050518;28;20052;-70
2023/06/26 10:34:25;;;;;;;6.88;6.15;;;794.20;1510.40;;;;;;5049076;28;20368;-72
2023/06/26 10:37:03;;;;;;;8.57;6.57;;;794.30;1484.80;;;;;;5049780;28;20032;-72
2023/06/26 10:39:45;;;;;;;9.13;6.03;;;794.00;1484.80;;;;;;5048280;28;20040;-70
2023/06/26 10:42:11;;;;;;;7.05;6.35;;;794.00;1510.40;;;;;;5050237;28;20074;-71
2023/06/26 10:44:42;;;;;;;7.35;6.40;;;793.80;1510.40;;;;;;5050291;28;20483;-67
2023/06/26 10:47:08;;;;;;;7.32;6.63;;;793.70;1536.00;;;;;;5049827;28;20025;-67
2023/06/26 10:49:36;;;;;;;11.05;6.53;;;793.80;1510.40;;;;;;5050252;28;20021;-68
2023/06/26 10:52:02;;;;;;;7.22;6.47;;;793.70;1536.00;;;;;;5049635;28;20021;-66
2023/06/26 10:54:32;;;;;;;7.68;6.32;;;793.70;1536.00;;;;;;5049802;28;20071;-69
2023/06/26 10:56:58;;;;;;;8.50;7.38;;;794.00;1484.80;;;;;;5049798;28;20052;-69
2023/06/26 10:59:28;;;;;;;7.85;6.65;;;794.00;1561.60;;;;;;5050336;28;20471;-69
2023/06/26 11:01:58;;;;;;;7.95;6.80;;;794.10;1510.40;;;;;;5050085;28;20025;-67
2023/06/26 11:04:44;;;;;;;6.30;5.70;;;793.70;1561.60;;;;;;5049852;28;20131;-71
2023/06/26 11:07:19;;;;;;;7.88;6.82;;;;;;;;;;5048743;28;20029;-66
2023/06/26 11:09:54;;;;;;;9.45;6.95;;;;;;;;;;5050055;28;20379;-66
2023/06/26 11:12:41;;;;;;;8.07;6.13;;;;;;;;;;5048864;28;20028;-66
2023/06/26 11:15:11;;;;;;;6.05;5.45;;;;;;;;;;5049045;28;20036;-65
2023/06/26 11:17:38;;;;;;;6.78;6.07;;;;;;;;;;5049402;28;20025;-71
2023/06/26 11:20:07;;;;;;;8.43;6.55;;;;;;;;;;5049734;28;20056;-66
2023/06/26 11:22:35;;;;;;;7.95;6.05;;;;;;;;;;5049318;28;20100;-64
2023/06/26 11:25:02;;;;;;;7.43;6.35;;;;;;;;;;5049056;28;20104;-66
2023/06/26 11:27:37;;;;;;;11.63;7.03;;;;;;;;;;5048988;28;20061;-66
2023/06/26 11:30:03;;;;;;;6.88;6.18;;;;;;;;;;5049438;28;20023;-66
2023/06/26 11:32:30;;;;;;;7.10;6.18;;;;;;;;;;5048888;28;20520;-71
2023/06/26 11:34:56;;;;;;;7.80;6.47;;;;;;;;;;5049390;28;20055;-67
2023/06/26 11:37:22;;;;;;;8.35;6.18;;;;;;;;;;5048707;28;20147;-72
2023/06/26 11:39:48;;;;;;;7.80;6.70;;;794.50;1459.20;;;;;;5049131;28;20044;-67
2023/06/26 11:42:14;;;;;;;8.05;6.60;;;794.20;1459.20;;;;;;5048852;28;20025;-66
2023/06/26 11:44:42;;;;;;;15.32;7.40;;;794.50;1510.40;;;;;;5048860;28;20801;-72
2023/06/26 11:47:08;;;;;;;8.32;6.25;;;794.30;1510.40;;;;;;5049000;28;20025;-72
2023/06/26 11:49:33;;;;;;;6.43;5.82;;;794.20;1536.00;;;;;;5049059;28;20017;-72
2023/06/26 11:51:59;;;;;;;9.20;6.35;;;794.00;1536.00;;;;;;5048257;28;20508;-71
2023/06/26 11:54:26;;;;;;;6.22;5.60;;;794.00;1561.60;;;;;;5022931;28;20559;-70
2023/06/26 11:56:57;;;;;;;7.47;6.10;;;794.00;1561.60;;;;;;5048509;28;20017;-70
2023/06/26 11:59:23;;;;;;;7.88;6.05;;;793.70;1536.00;;;;;;5048163;28;20033;-67
2023/06/26 12:01:50;;;;;;;7.90;6.93;;;793.70;1536.00;;;;;;5018847;28;20026;-71
2023/06/26 12:04:19;;;;;;;7.20;6.50;;;793.60;1536.00;;;;;;5027862;28;20127;-69
2023/06/26 12:06:50;;;;;;;8.88;6.20;;;793.60;1536.00;;;;;;5021506;28;20033;-70
2023/06/26 12:09:19;;;;;;;9.65;6.38;;;793.70;1536.00;;;;;;5026581;28;20065;-67
2023/06/26 12:11:48;;;;;;;6.13;5.53;;;794.00;1510.40;;;;;;5022486;28;20124;-67
2023/06/26 12:14:15;;;;;;;12.40;6.00;;;794.00;1561.60;;;;;;5017213;28;20026;-70
2023/06/26 12:16:41;;;;;;;11.38;6.18;;;794.30;1510.40;;;;;;5026354;28;20022;-72
2023/06/26 12:19:08;;;;;;;9.35;6.15;;;794.20;1510.40;;;;;;5025642;28;20418;-67
2023/06/26 12:21:56;;;;;;;9.88;6.18;;;794.00;1587.20;;;;;;5016274;28;20120;-70
2023/06/26 12:24:23;;;;;;;6.80;6.10;;;793.70;1536.00;;;;;;5032026;28;20083;-67